CPX430 Details

Departure: Sacramento International Airport (KSMF)
Arrival: Seattle-Tacoma International Airport (KSEA) at N/A
Route: RBL J126 OED J1 SEA
Notes:


Current Weather Information
KSMF 251153Z 16007KT 10SM CLR 21/12 A2991 RMK AO2 SLP126 T02110122 10239 20211 51003 $
KSEA 251153Z 05005KT 10SM SCT026 BKN060 16/10 A3009 RMK AO2 SLP192 T01610100 10194 20161 53005